Time;durP1;ratioP1;P1;durP2;ratioP2;P2;SDS_P1;SDS_P2;PMS_P1;PMS_P2;Temp;Humidity;BMP_temperature;BMP_pressure;BME280_temperature;BME280_humidity;BME280_pressure;Samples;Min_cycle;Max_cycle;Signal;HPM_P1;HPM_P2
2022/12/12 00:01:56;;;;;;;;;;;0.10;90.90;;;;;;5036989;28;19932;-76
2022/12/12 00:04:22;;;;;;;;;;;0.00;90.90;;;;;;5038244;28;19923;-76
2022/12/12 00:06:47;;;;;;;;;;;0.00;90.90;;;;;;5038840;28;19930;-77
2022/12/12 00:09:13;;;;;;;;;;;0.00;90.90;;;;;;5034377;28;20680;-77
2022/12/12 00:11:38;;;;;;;;;;;0.00;90.90;;;;;;5034581;28;19917;-77
2022/12/12 00:14:04;;;;;;;;;;;0.00;90.90;;;;;;5038958;28;19959;-77
2022/12/12 00:16:29;;;;;;;;;;;0.00;90.90;;;;;;5038714;28;19921;-77
2022/12/12 00:18:55;;;;;;;;;;;0.00;90.90;;;;;;5034071;28;19978;-76
2022/12/12 00:21:21;;;;;;;;;;;0.00;90.90;;;;;;5036596;28;20629;-76
2022/12/12 00:23:47;;;;;;;;;;;0.00;90.90;;;;;;5038434;28;20582;-76
2022/12/12 00:26:14;;;;;;;;;;;0.00;91.00;;;;;;5017212;28;19912;-77
2022/12/12 00:28:40;;;;;;;;;;;0.00;91.00;;;;;;5020571;28;19919;-77
2022/12/12 00:31:05;;;;;;;;;;;0.00;91.00;;;;;;5024546;28;19921;-77
2022/12/12 00:33:31;;;;;;;;;;;0.00;91.00;;;;;;5035523;28;19961;-77
2022/12/12 00:35:56;;;;;;;;;;;0.00;91.00;;;;;;5054147;28;19921;-77
2022/12/12 00:38:22;;;;;;;;;;;0.00;91.00;;;;;;5038102;28;19921;-77
2022/12/12 00:40:47;;;;;;;;;;;0.00;91.00;;;;;;5023788;28;19927;-77
2022/12/12 00:43:13;;;;;;;;;;;0.10;91.00;;;;;;5034387;28;19916;-77
2022/12/12 00:45:38;;;;;;;;;;;0.10;91.00;;;;;;5025130;28;20576;-77
2022/12/12 00:48:04;;;;;;;;;;;0.10;91.00;;;;;;5037741;28;20514;-77
2022/12/12 00:50:30;;;;;;;;;;;0.10;91.00;;;;;;5021769;28;19925;-76
2022/12/12 00:52:55;;;;;;;;;;;0.10;91.00;;;;;;5020834;28;20034;-76
2022/12/12 00:55:22;;;;;;;;;;;0.10;91.00;;;;;;5023273;28;20363;-76
2022/12/12 00:57:47;;;;;;;;;;;0.00;90.90;;;;;;5041009;28;19925;-77
2022/12/12 01:00:13;;;;;;;;;;;0.10;91.00;;;;;;5037165;28;19925;-76
2022/12/12 01:02:38;;;;;;;;;;;0.00;90.90;;;;;;5033674;28;19967;-77
2022/12/12 01:05:04;;;;;;;;;;;0.00;91.00;;;;;;5041051;28;20390;-77
2022/12/12 01:07:29;;;;;;;;;;;0.00;90.90;;;;;;5021870;28;20015;-77
2022/12/12 01:09:55;;;;;;;;;;;0.00;90.90;;;;;;5022138;28;19917;-77
2022/12/12 01:12:20;;;;;;;;;;;0.00;91.00;;;;;;5034431;28;20540;-76
2022/12/12 01:14:46;;;;;;;;;;;0.00;91.00;;;;;;5039018;28;19920;-76
2022/12/12 01:17:11;;;;;;;;;;;0.00;91.00;;;;;;5033174;28;19928;-77
2022/12/12 01:19:37;;;;;;;;;;;0.00;91.00;;;;;;5035912;28;19921;-77
2022/12/12 01:22:02;;;;;;;;;;;0.00;91.00;;;;;;5038526;28;19956;-77
2022/12/12 01:24:28;;;;;;;;;;;0.00;91.00;;;;;;5022001;28;19924;-77
2022/12/12 01:26:53;;;;;;;;;;;0.00;91.00;;;;;;5032041;28;20019;-77
2022/12/12 01:29:19;;;;;;;;;;;0.00;91.00;;;;;;5036830;28;20339;-77
2022/12/12 01:31:44;;;;;;;;;;;0.00;91.00;;;;;;5038775;28;19925;-78
2022/12/12 01:34:10;;;;;;;;;;;0.00;91.00;;;;;;5039540;28;21442;-77
2022/12/12 01:36:35;;;;;;;;;;;-0.10;90.90;;;;;;5021122;28;19916;-76
2022/12/12 01:39:01;;;;;;;;;;;0.00;91.00;;;;;;5034042;28;19929;-77
2022/12/12 01:41:27;;;;;;;;;;;0.00;91.00;;;;;;5036455;28;19921;-76
2022/12/12 01:43:52;;;;;;;;;;;-0.10;90.90;;;;;;5039232;28;20552;-77
2022/12/12 01:46:21;;;;;;;;;;;-0.10;90.90;;;;;;5031115;28;19921;-76
2022/12/12 01:48:49;;;;;;;;;;;0.00;91.00;;;;;;5036012;28;19946;-77
2022/12/12 01:51:15;;;;;;;;;;;0.00;91.00;;;;;;5022364;28;19925;-77
2022/12/12 01:53:41;;;;;;;;;;;0.00;91.00;;;;;;5037444;28;19925;-77
2022/12/12 01:56:07;;;;;;;;;;;0.00;91.00;;;;;;5031842;28;19988;-78
2022/12/12 01:58:33;;;;;;;;;;;0.00;91.00;;;;;;5032513;28;20004;-76
2022/12/12 02:00:58;;;;;;;;;;;0.00;91.00;;;;;;5032301;28;21191;-77
2022/12/12 02:03:24;;;;;;;;;;;0.00;91.00;;;;;;5037315;28;19916;-77
2022/12/12 02:05:50;;;;;;;;;;;0.00;91.00;;;;;;5038976;28;19925;-75
2022/12/12 02:08:16;;;;;;;;;;;0.00;91.00;;;;;;5037083;28;20015;-77
2022/12/12 02:10:43;;;;;;;;;;;0.10;91.00;;;;;;5024679;28;20012;-77
2022/12/12 02:13:09;;;;;;;;;;;0.10;91.00;;;;;;5039952;28;20035;-77
2022/12/12 02:15:55;;;;;;;;;;;0.10;91.00;;;;;;5036169;28;20564;-78
2022/12/12 02:18:36;;;;;;;;;;;0.10;91.00;;;;;;5030390;28;19956;-75
2022/12/12 02:21:03;;;;;;;;;;;0.10;91.00;;;;;;5052871;28;19968;-77
2022/12/12 02:23:35;;;;;;;;;;;0.10;91.00;;;;;;5021569;28;19932;-77
2022/12/12 02:26:19;;;;;;;;;;;0.00;91.00;;;;;;5037483;28;24642;-77
2022/12/12 02:28:54;;;;;;;;;;;0.10;91.00;;;;;;5043799;28;19924;-77
2022/12/12 02:31:33;;;;;;;;;;;0.10;91.00;;;;;;5055581;28;20438;-77
2022/12/12 02:34:00;;;;;;;;;;;0.10;91.00;;;;;;5039065;28;19920;-77
2022/12/12 02:36:46;;;;;;;;;;;0.10;91.00;;;;;;5035379;28;19917;-76
2022/12/12 02:39:14;;;;;;;;;;;0.10;91.00;;;;;;5035329;28;19945;-78
2022/12/12 02:41:41;;;;;;;;;;;0.10;91.00;;;;;;5027128;28;20288;-77
2022/12/12 02:44:17;;;;;;;;;;;0.10;91.00;;;;;;5037203;28;19917;-77
2022/12/12 02:46:45;;;;;;;;;;;0.10;91.00;;;;;;5039891;28;19923;-77
2022/12/12 02:49:18;;;;;;;;;;;0.10;91.00;;;;;;5033736;28;19916;-76
2022/12/12 02:51:44;;;;;;;;;;;0.10;91.00;;;;;;5033540;28;19931;-77
2022/12/12 02:54:13;;;;;;;;;;;0.10;91.00;;;;;;5034771;28;19916;-77
2022/12/12 02:56:42;;;;;;;;;;;0.10;91.00;;;;;;5047966;28;19917;-77
2022/12/12 02:59:08;;;;;;;;;;;0.10;91.00;;;;;;5057259;28;19921;-76
2022/12/12 03:01:50;;;;;;;;;;;0.10;91.00;;;;;;5037467;28;19954;-77
2022/12/12 03:10:10;;;;;;;;;;;0.10;91.00;;;;;;5043261;28;19962;-75
2022/12/12 03:12:41;;;;;;;;;;;0.10;91.00;;;;;;5038459;28;19924;-77
2022/12/12 03:15:10;;;;;;;;;;;0.10;91.00;;;;;;5054643;28;19916;-77
2022/12/12 03:17:44;;;;;;;;;;;0.10;91.00;;;;;;5045827;28;19917;-77
2022/12/12 03:20:09;;;;;;;;;;;0.00;91.00;;;;;;5036749;28;19921;-76
2022/12/12 03:22:38;;;;;;;;;;;0.10;91.00;;;;;;5058274;28;20066;-77
2022/12/12 03:25:08;;;;;;;;;;;0.10;91.00;;;;;;5057950;28;19969;-77
2022/12/12 03:27:43;;;;;;;;;;;0.00;91.00;;;;;;5023759;28;19924;-77
2022/12/12 03:30:10;;;;;;;;;;;0.00;91.00;;;;;;5046406;28;19942;-75
2022/12/12 03:32:41;;;;;;;;;;;0.10;91.00;;;;;;5033237;28;19913;-77
2022/12/12 03:35:09;;;;;;;;;;;0.00;91.00;;;;;;5045822;28;20639;-77
2022/12/12 03:37:36;;;;;;;;;;;0.00;91.00;;;;;;5025902;28;19916;-77
2022/12/12 03:40:06;;;;;;;;;;;0.00;91.00;;;;;;5023544;28;19929;-77
2022/12/12 03:42:31;;;;;;;;;;;0.00;91.00;;;;;;5028400;28;19925;-76
2022/12/12 03:44:59;;;;;;;;;;;0.00;91.10;;;;;;5058715;28;20391;-77
2022/12/12 03:47:26;;;;;;;;;;;0.00;91.00;;;;;;5023571;28;19920;-76
2022/12/12 03:49:57;;;;;;;;;;;0.00;91.00;;;;;;5046055;28;19917;-77
2022/12/12 03:52:34;;;;;;;;;;;0.00;91.00;;;;;;5041228;28;19927;-77
2022/12/12 03:55:01;;;;;;;;;;;0.00;91.00;;;;;;5043194;28;19917;-77
2022/12/12 03:57:29;;;;;;;;;;;-0.10;91.00;;;;;;5038205;28;19917;-77
2022/12/12 04:00:02;;;;;;;;;;;-0.10;91.00;;;;;;5024621;28;19974;-76
2022/12/12 04:02:31;;;;;;;;;;;-0.10;91.00;;;;;;5027440;28;20430;-76
2022/12/12 04:05:09;;;;;;;;;;;-0.10;91.00;;;;;;5040571;28;19916;-77
2022/12/12 04:07:36;;;;;;;;;;;-0.20;90.90;;;;;;5039135;28;19932;-77
2022/12/12 04:13:06;;;;;;;;;;;-0.20;91.00;;;;;;5045871;28;20053;-76
2022/12/12 04:15:38;;;;;;;;;;;-0.20;91.00;;;;;;5042006;28;20382;-75
2022/12/12 04:18:06;;;;;;;;;;;-0.20;91.00;;;;;;5040091;28;19917;-76
2022/12/12 04:23:51;;;;;;;;;;;-0.20;91.00;;;;;;5055082;28;20023;-75
2022/12/12 04:26:41;;;;;;;;;;;-0.20;91.00;;;;;;5053273;28;21239;-77
2022/12/12 04:29:24;;;;;;;;;;;-0.20;91.00;;;;;;5044472;28;20017;-77
2022/12/12 04:31:56;;;;;;;;;;;-0.20;91.00;;;;;;5052486;28;19925;-77
2022/12/12 04:34:25;;;;;;;;;;;-0.20;91.00;;;;;;5056592;28;20375;-76
2022/12/12 04:36:50;;;;;;;;;;;-0.20;91.00;;;;;;5041589;28;19951;-77
2022/12/12 04:39:15;;;;;;;;;;;-0.20;91.00;;;;;;5040610;28;19920;-77
2022/12/12 04:41:41;;;;;;;;;;;-0.20;91.00;;;;;;5044882;28;19959;-77
2022/12/12 04:44:06;;;;;;;;;;;-0.20;91.00;;;;;;5035297;28;19924;-77
2022/12/12 04:46:32;;;;;;;;;;;-0.20;91.00;;;;;;5040438;28;19980;-77
2022/12/12 04:48:59;;;;;;;;;;;-0.20;91.00;;;;;;5021617;28;19924;-77
2022/12/12 04:51:25;;;;;;;;;;;-0.20;91.00;;;;;;5037235;28;19916;-77
2022/12/12 04:53:53;;;;;;;;;;;-0.30;91.00;;;;;;5022254;28;20306;-76
2022/12/12 04:56:19;;;;;;;;;;;-0.30;91.10;;;;;;5023845;28;20380;-76
2022/12/12 04:58:45;;;;;;;;;;;-0.30;91.00;;;;;;5042749;28;20512;-77
2022/12/12 05:01:29;;;;;;;;;;;-0.30;91.00;;;;;;5035327;28;19917;-77
2022/12/12 05:03:59;;;;;;;;;;;-0.30;91.10;;;;;;5048037;28;20729;-76
2022/12/12 05:09:28;;;;;;;;;;;-0.20;91.10;;;;;;5005606;28;20093;-77
2022/12/12 05:11:53;;;;;;;;;;;-0.20;91.10;;;;;;5022913;28;20049;-76
2022/12/12 05:14:19;;;;;;;;;;;-0.20;91.00;;;;;;5021062;28;21347;-77
2022/12/12 05:16:46;;;;;;;;;;;-0.20;91.00;;;;;;5018252;28;20587;-77
2022/12/12 05:19:11;;;;;;;;;;;-0.30;91.00;;;;;;5012226;28;19922;-77
2022/12/12 05:21:37;;;;;;;;;;;-0.20;91.00;;;;;;5011712;28;19932;-75
2022/12/12 05:24:02;;;;;;;;;;;-0.30;91.00;;;;;;5006603;28;19924;-77
2022/12/12 05:26:29;;;;;;;;;;;-0.30;91.10;;;;;;5007724;28;19997;-77
2022/12/12 05:28:54;;;;;;;;;;;-0.20;91.10;;;;;;5010728;28;19925;-77
2022/12/12 05:31:20;;;;;;;;;;;-0.20;91.10;;;;;;5018861;28;19921;-74
2022/12/12 05:33:45;;;;;;;;;;;-0.20;91.10;;;;;;5021364;28;19921;-77
2022/12/12 05:36:11;;;;;;;;;;;-0.20;91.10;;;;;;5001573;28;19917;-77
2022/12/12 05:38:36;;;;;;;;;;;-0.20;91.10;;;;;;5019232;28;19924;-76
2022/12/12 05:41:02;;;;;;;;;;;-0.20;91.10;;;;;;5015248;28;19928;-75
2022/12/12 05:43:27;;;;;;;;;;;-0.20;91.10;;;;;;5018009;28;19921;-76
2022/12/12 05:45:53;;;;;;;;;;;-0.20;91.00;;;;;;5010305;28;19925;-77
2022/12/12 05:48:18;;;;;;;;;;;-0.20;91.00;;;;;;5002657;28;19920;-77
2022/12/12 05:50:44;;;;;;;;;;;-0.20;91.00;;;;;;5017998;28;19925;-76
2022/12/12 05:53:09;;;;;;;;;;;-0.20;91.00;;;;;;5011874;28;19932;-75
2022/12/12 05:55:35;;;;;;;;;;;-0.20;91.10;;;;;;5016107;28;19924;-77
2022/12/12 05:58:00;;;;;;;;;;;-0.20;91.10;;;;;;5013085;28;19997;-76
2022/12/12 06:00:26;;;;;;;;;;;-0.20;91.10;;;;;;5015563;28;19976;-77
2022/12/12 06:02:51;;;;;;;;;;;-0.20;91.10;;;;;;5025362;28;19913;-77
2022/12/12 06:05:17;;;;;;;;;;;-0.20;91.10;;;;;;5000564;28;20537;-77
2022/12/12 06:07:42;;;;;;;;;;;-0.20;91.10;;;;;;5037298;28;19932;-76
2022/12/12 06:10:08;;;;;;;;;;;-0.20;91.10;;;;;;5040599;28;20011;-77
2022/12/12 06:12:33;;;;;;;;;;;-0.10;91.10;;;;;;5036336;28;19925;-77
2022/12/12 06:14:59;;;;;;;;;;;-0.10;91.10;;;;;;5037901;28;19917;-77
2022/12/12 06:17:24;;;;;;;;;;;-0.10;91.10;;;;;;5036090;28;20399;-77
2022/12/12 06:19:51;;;;;;;;;;;-0.10;91.10;;;;;;5028780;28;19935;-77
2022/12/12 06:22:16;;;;;;;;;;;-0.10;91.10;;;;;;5029622;28;19966;-77
2022/12/12 06:24:42;;;;;;;;;;;-0.10;91.10;;;;;;5036922;28;19925;-78
2022/12/12 06:27:07;;;;;;;;;;;-0.10;91.10;;;;;;5041368;28;19956;-77
2022/12/12 06:29:33;;;;;;;;;;;-0.10;91.10;;;;;;5048153;28;19925;-78
2022/12/12 06:31:58;;;;;;;;;;;-0.10;91.10;;;;;;5035876;28;20499;-78
2022/12/12 06:34:24;;;;;;;;;;;-0.10;91.10;;;;;;5020319;28;19933;-77
2022/12/12 06:36:49;;;;;;;;;;;-0.10;91.10;;;;;;5015041;28;19916;-78
2022/12/12 06:39:15;;;;;;;;;;;-0.10;91.10;;;;;;5033583;28;19971;-78
2022/12/12 06:41:40;;;;;;;;;;;-0.10;91.10;;;;;;5041987;28;20004;-78
2022/12/12 06:44:06;;;;;;;;;;;-0.10;91.10;;;;;;5036603;28;19927;-76
2022/12/12 06:46:31;;;;;;;;;;;-0.10;91.10;;;;;;5033689;28;19928;-77
2022/12/12 06:48:57;;;;;;;;;;;-0.10;91.10;;;;;;5033738;28;19916;-78
2022/12/12 06:51:27;;;;;;;;;;;-0.10;91.10;;;;;;5036416;28;19925;-78
2022/12/12 06:53:52;;;;;;;;;;;-0.10;91.10;;;;;;5036145;28;20372;-77
2022/12/12 06:56:18;;;;;;;;;;;-0.10;91.00;;;;;;5025561;28;20015;-78
2022/12/12 06:58:44;;;;;;;;;;;-0.20;91.00;;;;;;5021801;28;19920;-78
2022/12/12 07:01:10;;;;;;;;;;;-0.20;91.00;;;;;;5034147;28;19920;-76
2022/12/12 07:03:36;;;;;;;;;;;-0.20;91.00;;;;;;5034018;28;19978;-78
2022/12/12 07:06:01;;;;;;;;;;;-0.20;91.00;;;;;;5034936;28;19916;-78
2022/12/12 07:08:29;;;;;;;;;;;-0.30;91.00;;;;;;5043115;28;19932;-77
2022/12/12 07:10:55;;;;;;;;;;;-0.30;91.00;;;;;;5040784;28;19916;-76
2022/12/12 07:13:20;;;;;;;;;;;-0.30;91.00;;;;;;5014548;28;20401;-76
2022/12/12 07:15:47;;;;;;;;;;;-0.30;91.10;;;;;;5038574;28;20307;-78
2022/12/12 07:18:13;;;;;;;;;;;-0.40;91.00;;;;;;5052554;28;19924;-78
2022/12/12 07:20:42;;;;;;;;;;;-0.40;91.00;;;;;;5040966;28;19920;-78
2022/12/12 07:23:07;;;;;;;;;;;-0.40;91.10;;;;;;5025319;28;19999;-75
2022/12/12 07:25:35;;;;;;;;;;;-0.50;91.00;;;;;;5040499;28;20031;-77
2022/12/12 07:28:01;;;;;;;;;;;-0.50;91.10;;;;;;5035882;28;19921;-77
2022/12/12 07:30:26;;;;;;;;;;;-0.50;91.10;;;;;;5050299;28;20394;-77
2022/12/12 07:32:52;;;;;;;;;;;-0.50;91.10;;;;;;5037864;28;20694;-78
2022/12/12 07:35:17;;;;;;;;;;;-0.50;91.10;;;;;;5032509;28;19917;-76
2022/12/12 07:37:43;;;;;;;;;;;-0.40;91.10;;;;;;5036634;28;19921;-77
2022/12/12 07:40:08;;;;;;;;;;;-0.50;91.10;;;;;;5022349;28;20014;-75
2022/12/12 07:42:34;;;;;;;;;;;-0.50;91.10;;;;;;5034459;28;20283;-77
2022/12/12 07:44:59;;;;;;;;;;;-0.50;91.10;;;;;;5035534;28;19930;-77
2022/12/12 07:47:25;;;;;;;;;;;-0.50;91.10;;;;;;5011987;28;20375;-77
2022/12/12 07:49:50;;;;;;;;;;;-0.50;91.10;;;;;;5039543;28;20011;-78
2022/12/12 07:52:16;;;;;;;;;;;-0.50;91.10;;;;;;5037455;28;19939;-76
2022/12/12 07:54:41;;;;;;;;;;;-0.50;91.10;;;;;;5053068;28;20505;-76
2022/12/12 07:57:07;;;;;;;;;;;-0.50;91.10;;;;;;5021946;28;20228;-78
2022/12/12 07:59:32;;;;;;;;;;;-0.50;91.10;;;;;;5038421;28;19928;-77
2022/12/12 08:01:58;;;;;;;;;;;-0.60;91.10;;;;;;5055344;28;19917;-78
2022/12/12 08:04:23;;;;;;;;;;;-0.60;91.10;;;;;;5041066;28;19920;-79
2022/12/12 08:06:49;;;;;;;;;;;-0.60;91.10;;;;;;5021311;28;19925;-76
2022/12/12 08:09:14;;;;;;;;;;;-0.60;91.10;;;;;;5035063;28;20378;-78
2022/12/12 08:11:39;;;;;;;;;;;-0.60;91.10;;;;;;5038547;28;20045;-79
2022/12/12 08:14:05;;;;;;;;;;;-0.60;91.10;;;;;;5039918;28;19928;-78
2022/12/12 08:16:31;;;;;;;;;;;-0.60;91.10;;;;;;5017276;28;20039;-76
2022/12/12 08:18:57;;;;;;;;;;;-0.50;91.10;;;;;;5037877;28;20391;-77
2022/12/12 08:21:22;;;;;;;;;;;-0.50;91.10;;;;;;5025171;28;20030;-76
2022/12/12 08:23:48;;;;;;;;;;;-0.50;91.10;;;;;;5053382;28;19981;-78
2022/12/12 08:26:14;;;;;;;;;;;-0.50;91.10;;;;;;5039888;28;19924;-77
2022/12/12 08:28:48;;;;;;;;;;;-0.50;91.20;;;;;;5033889;28;20012;-78
2022/12/12 08:31:16;;;;;;;;;;;-0.50;91.10;;;;;;5034217;28;19917;-77
2022/12/12 08:33:42;;;;;;;;;;;-0.40;91.20;;;;;;5038189;28;19970;-77
2022/12/12 08:36:11;;;;;;;;;;;-0.40;91.20;;;;;;5018811;28;20330;-77
2022/12/12 08:38:36;;;;;;;;;;;-0.40;91.20;;;;;;5035091;28;19921;-78
2022/12/12 08:41:02;;;;;;;;;;;-0.40;91.20;;;;;;5034142;28;20603;-77
2022/12/12 08:43:27;;;;;;;;;;;-0.30;91.20;;;;;;5036358;28;19917;-77
2022/12/12 08:45:58;;;;;;;;;;;-0.30;91.20;;;;;;5035979;28;20613;-76
2022/12/12 08:48:23;;;;;;;;;;;-0.20;91.20;;;;;;5036000;28;19947;-77
2022/12/12 08:50:50;;;;;;;;;;;-0.20;91.20;;;;;;5033469;28;19928;-76
2022/12/12 08:53:16;;;;;;;;;;;-0.10;91.20;;;;;;5038383;28;19920;-75
2022/12/12 08:55:41;;;;;;;;;;;-0.10;91.20;;;;;;5033961;28;20449;-77
2022/12/12 08:58:06;;;;;;;;;;;0.00;91.20;;;;;;5035794;28;19925;-78
2022/12/12 09:00:32;;;;;;;;;;;0.00;91.20;;;;;;5019349;28;19972;-76
2022/12/12 09:02:57;;;;;;;;;;;0.00;91.20;;;;;;5028196;28;19921;-78
2022/12/12 09:05:23;;;;;;;;;;;0.10;91.20;;;;;;5023803;28;19955;-76
2022/12/12 09:07:48;;;;;;;;;;;0.10;91.20;;;;;;5039169;28;19925;-77
2022/12/12 09:10:14;;;;;;;;;;;0.20;91.20;;;;;;5009858;28;19916;-76
2022/12/12 09:12:39;;;;;;;;;;;0.20;91.20;;;;;;5035022;28;19975;-77
2022/12/12 09:15:06;;;;;;;;;;;0.30;91.20;;;;;;5016488;28;19952;-75
2022/12/12 09:17:31;;;;;;;;;;;0.30;91.20;;;;;;5021126;28;19928;-78
2022/12/12 09:19:57;;;;;;;;;;;0.40;91.20;;;;;;5024703;28;19925;-76
2022/12/12 09:22:22;;;;;;;;;;;0.40;91.20;;;;;;5022615;28;20281;-77
2022/12/12 09:24:48;;;;;;;;;;;0.50;91.20;;;;;;5036789;28;19950;-77
2022/12/12 09:27:13;;;;;;;;;;;0.50;91.20;;;;;;5036229;28;19917;-78
2022/12/12 09:29:39;;;;;;;;;;;0.60;91.20;;;;;;5034660;28;20548;-78
2022/12/12 09:32:05;;;;;;;;;;;0.70;91.20;;;;;;5038397;28;19924;-78
2022/12/12 09:34:35;;;;;;;;;;;0.80;91.20;;;;;;5032029;28;19925;-78
2022/12/12 09:37:00;;;;;;;;;;;0.90;91.20;;;;;;5038819;28;19925;-77
2022/12/12 09:39:26;;;;;;;;;;;1.00;91.20;;;;;;5036107;28;19937;-77
2022/12/12 09:41:51;;;;;;;;;;;1.10;91.20;;;;;;5037405;28;20510;-78
2022/12/12 09:44:21;;;;;;;;;;;1.20;91.20;;;;;;5035954;28;19936;-77
2022/12/12 09:46:50;;;;;;;;;;;1.20;91.10;;;;;;5037839;28;19927;-79
2022/12/12 09:49:20;;;;;;;;;;;1.30;91.20;;;;;;5031764;28;19919;-75
2022/12/12 09:51:46;;;;;;;;;;;1.50;91.10;;;;;;5038282;28;19964;-78
2022/12/12 09:54:13;;;;;;;;;;;1.50;91.10;;;;;;5020946;28;19928;-76
2022/12/12 09:56:41;;;;;;;;;;;1.60;91.00;;;;;;5025002;28;19916;-78
2022/12/12 09:59:10;;;;;;;;;;;1.60;91.00;;;;;;5037840;28;20372;-78
2022/12/12 10:01:54;;;;;;;;;;;1.70;91.10;;;;;;5021771;28;20115;-78
2022/12/12 10:04:32;;;;;;;;;;;1.80;91.00;;;;;;5027948;28;19925;-78
2022/12/12 10:07:01;;;;;;;;;;;2.00;91.10;;;;;;5034836;28;19924;-78
2022/12/12 10:09:26;;;;;;;;;;;2.10;91.00;;;;;;5032401;28;19921;-77
2022/12/12 10:11:53;;;;;;;;;;;2.10;91.00;;;;;;5033822;28;20054;-77
2022/12/12 10:14:25;;;;;;;;;;;2.20;91.00;;;;;;5017893;28;19917;-78
2022/12/12 10:16:51;;;;;;;;;;;2.30;90.90;;;;;;5016614;28;20571;-78
2022/12/12 10:19:21;;;;;;;;;;;2.30;90.80;;;;;;5036003;28;19928;-77
2022/12/12 10:21:46;;;;;;;;;;;2.20;90.70;;;;;;5021328;28;19932;-75
2022/12/12 10:24:44;;;;;;;;;;;2.20;90.70;;;;;;5038213;28;19917;-77
2022/12/12 10:27:10;;;;;;;;;;;2.20;90.80;;;;;;4986813;28;20008;-76
2022/12/12 10:29:36;;;;;;;;;;;2.30;90.80;;;;;;5030672;28;19964;-77
2022/12/12 10:32:04;;;;;;;;;;;2.30;90.80;;;;;;5036247;28;19952;-77
2022/12/12 10:34:42;;;;;;;;;;;2.30;90.70;;;;;;5029235;28;19925;-77
2022/12/12 10:37:27;;;;;;;;;;;2.40;90.80;;;;;;5028584;28;19924;-77
2022/12/12 10:40:01;;;;;;;;;;;2.40;90.80;;;;;;5046835;28;20316;-76
2022/12/12 10:42:42;;;;;;;;;;;2.50;90.80;;;;;;5025707;28;19916;-76
2022/12/12 10:45:10;;;;;;;;;;;2.50;90.80;;;;;;5030349;28;20306;-77
2022/12/12 10:47:36;;;;;;;;;;;2.60;90.80;;;;;;5033730;28;19925;-76
2022/12/12 10:50:22;;;;;;;;;;;2.60;90.70;;;;;;5034121;28;19970;-77
2022/12/12 10:52:48;;;;;;;;;;;2.70;90.70;;;;;;5035559;28;19932;-78
2022/12/12 10:55:17;;;;;;;;;;;2.70;90.70;;;;;;5034124;28;20304;-77
2022/12/12 10:57:43;;;;;;;;;;;2.80;90.70;;;;;;5032852;28;20265;-77
2022/12/12 11:00:25;;;;;;;;;;;2.80;90.70;;;;;;5033621;28;19936;-77
2022/12/12 11:02:50;;;;;;;;;;;2.80;90.70;;;;;;5035495;28;20019;-76
2022/12/12 11:05:20;;;;;;;;;;;2.80;90.70;;;;;;5036291;28;20041;-77
2022/12/12 11:07:47;;;;;;;;;;;2.90;90.70;;;;;;5038707;28;20023;-76
2022/12/12 11:10:26;;;;;;;;;;;2.90;90.60;;;;;;5032203;28;20534;-76
2022/12/12 11:12:55;;;;;;;;;;;2.90;90.60;;;;;;5028332;28;20396;-76
2022/12/12 11:15:20;;;;;;;;;;;2.90;90.60;;;;;;5037462;28;19921;-75
2022/12/12 11:17:46;;;;;;;;;;;2.90;90.60;;;;;;5016513;28;19921;-76
2022/12/12 11:20:16;;;;;;;;;;;3.00;90.60;;;;;;5035997;28;19932;-77
2022/12/12 11:22:42;;;;;;;;;;;3.00;90.60;;;;;;5036454;28;20462;-77
2022/12/12 11:25:18;;;;;;;;;;;3.00;90.60;;;;;;5038046;28;19971;-77
2022/12/12 11:27:44;;;;;;;;;;;3.10;90.60;;;;;;5037632;28;19918;-77
2022/12/12 11:30:22;;;;;;;;;;;3.10;90.60;;;;;;5033509;28;19924;-77
2022/12/12 11:32:48;;;;;;;;;;;3.20;90.60;;;;;;5037904;28;19917;-76
2022/12/12 11:35:25;;;;;;;;;;;3.30;90.70;;;;;;5030130;28;19917;-77
2022/12/12 11:37:53;;;;;;;;;;;3.40;90.70;;;;;;5034121;28;19932;-77
2022/12/12 11:40:20;;;;;;;;;;;3.40;90.60;;;;;;5031740;28;20396;-76
2022/12/12 11:42:46;;;;;;;;;;;3.50;90.60;;;;;;5026228;28;19991;-77
2022/12/12 11:45:15;;;;;;;;;;;3.60;90.60;;;;;;5015291;28;20463;-77
2022/12/12 11:47:42;;;;;;;;;;;3.60;90.50;;;;;;5044792;28;19933;-77
2022/12/12 11:50:18;;;;;;;;;;;3.60;90.50;;;;;;5041243;28;19920;-77
2022/12/12 11:52:43;;;;;;;;;;;3.60;90.40;;;;;;5039419;28;19979;-77
2022/12/12 11:55:12;;;;;;;;;;;3.60;90.40;;;;;;5042182;28;20034;-75
2022/12/12 11:57:46;;;;;;;;;;;3.60;90.40;;;;;;5039158;28;20497;-77
2022/12/12 12:00:12;;;;;;;;;;;3.60;90.40;;;;;;5036591;28;19970;-77
2022/12/12 12:02:47;;;;;;;;;;;3.60;90.40;;;;;;5035248;28;19948;-77
2022/12/12 12:05:18;;;;;;;;;;;3.60;90.40;;;;;;5034726;28;21499;-78
2022/12/12 12:07:50;;;;;;;;;;;3.60;90.40;;;;;;5041261;28;19940;-77
2022/12/12 12:10:27;;;;;;;;;;;3.60;90.40;;;;;;5037436;28;19917;-77
2022/12/12 12:13:02;;;;;;;;;;;3.60;90.40;;;;;;5034790;28;19916;-78
2022/12/12 12:15:47;;;;;;;;;;;3.60;90.30;;;;;;5036592;28;20414;-77
2022/12/12 12:18:13;;;;;;;;;;;3.60;90.40;;;;;;5035469;28;19978;-77
2022/12/12 12:20:54;;;;;;;;;;;3.50;90.40;;;;;;5035183;28;20274;-76
2022/12/12 12:23:23;;;;;;;;;;;3.50;90.40;;;;;;5027212;28;19916;-76
2022/12/12 12:26:18;;;;;;;;;;;3.60;90.50;;;;;;5023867;28;20371;-77
2022/12/12 12:29:02;;;;;;;;;;;3.60;90.50;;;;;;5031283;28;19927;-77
2022/12/12 12:31:27;;;;;;;;;;;3.70;90.40;;;;;;5037629;28;19920;-78
2022/12/12 12:33:53;;;;;;;;;;;3.70;90.40;;;;;;5038057;28;19916;-77
2022/12/12 12:36:22;;;;;;;;;;;3.70;90.40;;;;;;5037817;28;20407;-77
2022/12/12 12:39:03;;;;;;;;;;;3.70;90.30;;;;;;5041273;28;19954;-77
2022/12/12 12:41:38;;;;;;;;;;;3.70;90.30;;;;;;5038485;28;19963;-76
2022/12/12 12:44:19;;;;;;;;;;;3.70;90.30;;;;;;5036024;28;20365;-77
2022/12/12 12:46:50;;;;;;;;;;;3.70;90.30;;;;;;5036553;28;19925;-77
2022/12/12 12:49:26;;;;;;;;;;;3.60;90.20;;;;;;5052219;28;19939;-76
2022/12/12 12:51:54;;;;;;;;;;;3.60;90.20;;;;;;5032607;28;19917;-75
2022/12/12 12:54:20;;;;;;;;;;;3.60;90.20;;;;;;5037468;28;19939;-76
2022/12/12 12:56:48;;;;;;;;;;;3.50;90.20;;;;;;5030314;28;19929;-76
2022/12/12 12:59:16;;;;;;;;;;;3.60;90.20;;;;;;5040708;28;19932;-77
2022/12/12 13:01:42;;;;;;;;;;;3.50;90.20;;;;;;5038400;28;19925;-77
2022/12/12 13:04:13;;;;;;;;;;;3.50;90.20;;;;;;5035097;28;19924;-77
2022/12/12 13:06:57;;;;;;;;;;;3.50;90.30;;;;;;5035080;28;19940;-77
2022/12/12 13:09:25;;;;;;;;;;;3.50;90.40;;;;;;5028033;28;19921;-77
2022/12/12 13:11:53;;;;;;;;;;;3.50;90.40;;;;;;5039637;28;20008;-77
2022/12/12 13:14:39;;;;;;;;;;;3.50;90.30;;;;;;5022406;28;19920;-77
2022/12/12 13:17:05;;;;;;;;;;;3.50;90.30;;;;;;5036112;28;19925;-76
2022/12/12 13:19:34;;;;;;;;;;;3.50;90.30;;;;;;5031727;28;19998;-76
2022/12/12 13:22:03;;;;;;;;;;;3.50;90.30;;;;;;5036288;28;20011;-77
2022/12/12 13:24:28;;;;;;;;;;;3.40;90.30;;;;;;5035302;28;19932;-76
2022/12/12 13:27:05;;;;;;;;;;;3.40;90.20;;;;;;5034075;28;19958;-77
2022/12/12 13:29:36;;;;;;;;;;;3.30;90.20;;;;;;5032263;28;20019;-76
2022/12/12 13:32:07;;;;;;;;;;;3.30;90.20;;;;;;5032817;28;20351;-75
2022/12/12 13:34:33;;;;;;;;;;;3.20;90.20;;;;;;5028537;28;19952;-76
2022/12/12 13:36:58;;;;;;;;;;;3.20;90.30;;;;;;5017977;28;20470;-77
2022/12/12 13:39:44;;;;;;;;;;;3.20;90.30;;;;;;5032231;28;19925;-77
2022/12/12 13:42:10;;;;;;;;;;;3.20;90.30;;;;;;5031199;28;19928;-74
2022/12/12 13:44:39;;;;;;;;;;;3.20;90.40;;;;;;5036633;28;19940;-77
2022/12/12 13:47:10;;;;;;;;;;;3.30;90.50;;;;;;5018770;28;19917;-76
2022/12/12 13:49:54;;;;;;;;;;;3.30;90.50;;;;;;5031134;28;19916;-76
2022/12/12 13:52:21;;;;;;;;;;;3.30;90.50;;;;;;5034217;28;19925;-75
2022/12/12 13:54:47;;;;;;;;;;;3.30;90.40;;;;;;5035913;28;19983;-75
2022/12/12 13:57:13;;;;;;;;;;;3.20;90.30;;;;;;5030293;28;20242;-77
2022/12/12 13:59:57;;;;;;;;;;;3.10;90.30;;;;;;5032340;28;20861;-76
2022/12/12 14:02:29;;;;;;;;;;;3.10;90.30;;;;;;5041314;28;19966;-76
2022/12/12 14:05:07;;;;;;;;;;;3.10;90.30;;;;;;5024317;28;20277;-76
2022/12/12 14:07:33;;;;;;;;;;;3.10;90.30;;;;;;5045144;28;19925;-76
2022/12/12 14:09:59;;;;;;;;;;;3.00;90.40;;;;;;5036361;28;19920;-76
2022/12/12 14:12:25;;;;;;;;;;;3.00;90.30;;;;;;5037654;28;19974;-76
2022/12/12 14:14:51;;;;;;;;;;;3.00;90.30;;;;;;5030476;28;19924;-75
2022/12/12 14:17:20;;;;;;;;;;;3.00;90.40;;;;;;5038574;28;19981;-77
2022/12/12 14:19:47;;;;;;;;;;;3.00;90.30;;;;;;5036210;28;19921;-77
2022/12/12 14:22:26;;;;;;;;;;;3.00;90.40;;;;;;5015592;28;20445;-76
2022/12/12 14:25:00;;;;;;;;;;;3.00;90.40;;;;;;5033163;28;20363;-75
2022/12/12 14:27:44;;;;;;;;;;;3.00;90.40;;;;;;5046353;28;20045;-76
2022/12/12 14:30:29;;;;;;;;;;;3.00;90.40;;;;;;5052702;28;19921;-76
2022/12/12 14:33:13;;;;;;;;;;;3.00;90.40;;;;;;5032193;28;21388;-77
2022/12/12 14:35:59;;;;;;;;;;;3.00;90.40;;;;;;5038979;28;20454;-76
2022/12/12 14:38:24;;;;;;;;;;;3.00;90.40;;;;;;5048251;28;19921;-76
2022/12/12 14:40:51;;;;;;;;;;;3.00;90.30;;;;;;5052054;28;19928;-77
2022/12/12 14:43:18;;;;;;;;;;;2.90;90.30;;;;;;5033726;28;19967;-76
2022/12/12 14:45:49;;;;;;;;;;;2.90;90.30;;;;;;5040159;28;20456;-77
2022/12/12 14:48:19;;;;;;;;;;;2.80;90.20;;;;;;5035285;28;20311;-75
2022/12/12 14:50:48;;;;;;;;;;;2.70;90.20;;;;;;5024173;28;19981;-77